createdAt,value
2018-09-12T00:01:55.947Z,3.20
2018-09-12T00:04:24.497Z,2.60
2018-09-12T00:06:53.339Z,2.70
2018-09-12T00:09:21.902Z,3.07
2018-09-12T00:11:50.443Z,2.80
2018-09-12T00:14:19.036Z,3.17
2018-09-12T00:16:47.561Z,2.90
2018-09-12T00:19:16.119Z,2.10
2018-09-12T00:21:44.738Z,3.07
2018-09-12T00:24:13.454Z,2.60
2018-09-12T00:26:42.095Z,3.27
2018-09-12T00:29:10.650Z,2.50
2018-09-12T00:31:39.319Z,2.77
2018-09-12T00:34:07.900Z,2.57
2018-09-12T00:36:36.585Z,3.13
2018-09-12T00:39:07.996Z,2.70
2018-09-12T00:41:36.565Z,2.70
2018-09-12T00:44:05.185Z,2.70
2018-09-12T00:46:34.023Z,2.60
2018-09-12T00:49:02.611Z,2.80
2018-09-12T00:51:31.224Z,2.90
2018-09-12T00:53:59.802Z,2.93
2018-09-12T00:56:28.374Z,3.80
2018-09-12T00:58:56.916Z,2.97
2018-09-12T01:01:25.659Z,3.07
2018-09-12T01:03:54.294Z,2.80
2018-09-12T01:06:22.992Z,2.87
2018-09-12T01:08:52.132Z,3.03
2018-09-12T01:11:23.167Z,2.97
2018-09-12T01:13:52.613Z,3.40
2018-09-12T01:16:21.456Z,2.87
2018-09-12T01:18:50.298Z,2.83
2018-09-12T01:21:18.936Z,2.87
2018-09-12T01:23:47.529Z,3.07
2018-09-12T01:26:16.205Z,2.93
2018-09-12T01:28:44.815Z,3.10
2018-09-12T01:31:13.525Z,3.10
2018-09-12T01:33:42.221Z,3.60
2018-09-12T01:36:10.917Z,3.37
2018-09-12T01:38:39.587Z,2.73
2018-09-12T01:41:08.173Z,3.33
2018-09-12T01:43:36.698Z,3.03
2018-09-12T01:46:05.624Z,3.53
2018-09-12T01:48:34.173Z,3.70
2018-09-12T01:51:02.836Z,2.53
2018-09-12T01:53:31.503Z,3.30
2018-09-12T01:56:00.320Z,3.30
2018-09-12T01:58:29.009Z,3.03
2018-09-12T02:00:57.600Z,3.13
2018-09-12T02:03:26.155Z,3.23
2018-09-12T02:05:54.749Z,3.53
2018-09-12T02:08:23.331Z,4.00
2018-09-12T02:10:51.874Z,2.73
2018-09-12T02:13:20.485Z,3.00
2018-09-12T02:15:49.437Z,2.97
2018-09-12T02:18:18.020Z,3.43
2018-09-12T02:20:46.557Z,3.07
2018-09-12T02:23:16.309Z,3.33
2018-09-12T02:25:44.871Z,3.13
2018-09-12T02:28:13.587Z,3.10
2018-09-12T02:30:42.160Z,3.20
2018-09-12T02:33:10.920Z,3.67
2018-09-12T02:35:44.887Z,3.23
2018-09-12T02:38:13.447Z,4.37
2018-09-12T02:40:42.883Z,3.17
2018-09-12T02:43:11.448Z,3.07
2018-09-12T02:45:40.777Z,2.90
2018-09-12T02:48:09.529Z,3.20
2018-09-12T02:50:38.122Z,3.67
2018-09-12T02:53:06.755Z,3.23
2018-09-12T02:55:35.404Z,3.50
2018-09-12T02:58:04.003Z,3.43
2018-09-12T03:00:32.556Z,3.20
2018-09-12T03:03:01.649Z,3.30
2018-09-12T03:05:30.159Z,3.40
2018-09-12T03:07:58.901Z,3.47
2018-09-12T03:10:27.448Z,3.70
2018-09-12T03:12:56.163Z,3.67
2018-09-12T03:15:24.768Z,3.40
2018-09-12T03:17:53.465Z,3.33
2018-09-12T03:20:22.008Z,3.40
2018-09-12T03:22:50.627Z,4.10
2018-09-12T03:25:19.210Z,3.97
2018-09-12T03:27:47.987Z,3.83
2018-09-12T03:30:16.589Z,3.57
2018-09-12T03:32:45.176Z,3.80
2018-09-12T03:35:13.761Z,3.70
2018-09-12T03:37:42.289Z,3.40
2018-09-12T03:40:10.886Z,3.93
2018-09-12T03:42:40.124Z,3.70
2018-09-12T03:45:08.728Z,3.63
2018-09-12T03:47:37.280Z,3.80
2018-09-12T03:50:06.240Z,2.93
2018-09-12T03:52:34.841Z,4.27
2018-09-12T03:55:03.580Z,4.00
2018-09-12T03:57:32.124Z,3.50
2018-09-12T04:00:01.254Z,5.00
2018-09-12T04:02:29.865Z,3.17
2018-09-12T04:04:58.481Z,4.03
2018-09-12T04:07:27.152Z,3.73
2018-09-12T04:09:55.730Z,3.87
2018-09-12T04:12:24.284Z,3.00
2018-09-12T04:14:53.051Z,3.73
2018-09-12T04:17:21.578Z,4.80
2018-09-12T04:19:50.298Z,3.80
2018-09-12T04:22:18.912Z,3.30
2018-09-12T04:24:47.489Z,4.07
2018-09-12T04:27:16.065Z,3.83
2018-09-12T04:29:44.604Z,3.87
2018-09-12T04:32:13.329Z,4.30
2018-09-12T04:34:41.953Z,4.20
2018-09-12T04:37:10.544Z,3.90
2018-09-12T04:39:39.054Z,4.10
2018-09-12T04:42:07.739Z,4.40
2018-09-12T04:44:36.350Z,4.50
2018-09-12T04:47:05.202Z,4.20
2018-09-12T04:49:33.800Z,3.23
2018-09-12T04:52:02.425Z,4.33
2018-09-12T04:54:31.003Z,3.90
2018-09-12T04:56:59.577Z,5.13
2018-09-12T04:59:28.121Z,3.60
2018-09-12T05:01:56.750Z,4.47
2018-09-12T05:04:25.329Z,4.50
2018-09-12T05:06:53.842Z,4.70
2018-09-12T05:09:22.439Z,4.30
2018-09-12T05:11:50.983Z,3.87
2018-09-12T05:14:19.552Z,4.57
2018-09-12T05:16:48.156Z,4.37
2018-09-12T05:19:16.676Z,4.30
2018-09-12T05:21:45.292Z,4.37
2018-09-12T05:24:13.960Z,4.30
2018-09-12T05:26:42.494Z,4.70
2018-09-12T05:29:11.200Z,4.40
2018-09-12T05:31:39.828Z,4.90
2018-09-12T05:34:08.360Z,5.00
2018-09-12T05:36:36.972Z,5.17
2018-09-12T05:39:10.751Z,6.53
2018-09-12T05:41:39.735Z,4.50
2018-09-12T05:44:08.297Z,4.00
2018-09-12T05:46:37.437Z,4.00
2018-09-12T05:49:06.170Z,4.70
2018-09-12T05:51:34.718Z,4.00
2018-09-12T05:54:03.433Z,4.13
2018-09-12T05:56:32.638Z,4.40
2018-09-12T05:59:01.373Z,4.80
2018-09-12T06:01:30.061Z,4.47
2018-09-12T06:03:58.660Z,5.03
2018-09-12T06:06:27.402Z,4.67
2018-09-12T06:08:55.980Z,4.67
2018-09-12T06:11:24.544Z,4.20
2018-09-12T06:13:53.365Z,4.47
2018-09-12T06:16:21.924Z,3.70
2018-09-12T06:18:50.586Z,3.90
2018-09-12T06:21:19.385Z,4.63
2018-09-12T06:23:47.997Z,4.67
2018-09-12T06:26:16.723Z,5.07
2018-09-12T06:28:45.375Z,4.30
2018-09-12T06:31:13.971Z,3.97
2018-09-12T06:33:42.528Z,4.67
2018-09-12T06:36:11.349Z,4.20
2018-09-12T06:38:40.027Z,4.80
2018-09-12T06:41:08.579Z,4.80
2018-09-12T06:43:37.169Z,4.10
2018-09-12T06:46:05.812Z,4.63
2018-09-12T06:48:34.485Z,4.70
2018-09-12T06:51:03.251Z,4.97
2018-09-12T06:53:32.046Z,4.50
2018-09-12T06:56:01.267Z,6.10
2018-09-12T06:58:30.716Z,4.90
2018-09-12T07:00:59.482Z,5.27
2018-09-12T07:03:28.060Z,5.33
2018-09-12T07:05:56.607Z,5.63
2018-09-12T07:08:27.858Z,6.30
2018-09-12T07:10:56.534Z,5.33
2018-09-12T07:13:25.140Z,5.80
2018-09-12T07:15:53.832Z,6.00
2018-09-12T07:18:22.447Z,6.00
2018-09-12T07:20:51.008Z,6.03
2018-09-12T07:23:20.291Z,5.33
2018-09-12T07:25:49.019Z,6.20
2018-09-12T07:28:17.629Z,5.00
2018-09-12T07:30:46.295Z,5.23
2018-09-12T07:33:15.025Z,5.77
2018-09-12T07:35:43.576Z,4.80
2018-09-12T07:38:12.140Z,5.10
2018-09-12T07:40:40.742Z,5.77
2018-09-12T07:43:09.530Z,5.80
2018-09-12T07:45:38.166Z,7.00
2018-09-12T07:48:07.198Z,5.53
2018-09-12T07:50:36.148Z,6.10
2018-09-12T07:53:04.776Z,5.80
2018-09-12T07:55:33.778Z,5.37
2018-09-12T07:58:02.396Z,5.23
2018-09-12T08:00:31.044Z,6.07
2018-09-12T08:02:59.828Z,5.73
2018-09-12T08:05:29.152Z,6.03
2018-09-12T08:07:58.468Z,6.40
2018-09-12T08:10:27.321Z,6.00
2018-09-12T08:12:56.169Z,6.43
2018-09-12T08:15:24.738Z,6.67
2018-09-12T08:17:53.297Z,6.57
2018-09-12T08:20:21.894Z,7.47
2018-09-12T08:22:50.463Z,6.40
2018-09-12T08:25:19.036Z,6.70
2018-09-12T08:27:47.611Z,8.20
2018-09-12T08:30:16.301Z,8.10
2018-09-12T08:32:44.918Z,8.17
2018-09-12T08:35:15.920Z,7.57
2018-09-12T08:37:44.741Z,8.23
2018-09-12T08:40:13.736Z,9.43
2018-09-12T08:42:42.645Z,9.60
2018-09-12T08:45:11.471Z,8.00
2018-09-12T08:47:40.171Z,7.40
2018-09-12T08:50:09.592Z,7.00
2018-09-12T08:52:38.486Z,6.60
2018-09-12T08:55:07.361Z,5.80
2018-09-12T08:57:36.188Z,6.60
2018-09-12T09:00:05.216Z,5.23
2018-09-12T09:02:33.778Z,5.90
2018-09-12T09:05:02.553Z,5.90
2018-09-12T09:07:31.418Z,5.07
2018-09-12T09:10:00.065Z,5.33
2018-09-12T09:12:29.368Z,4.80
2018-09-12T09:14:58.488Z,5.10
2018-09-12T09:17:27.839Z,4.87
2018-09-12T09:19:56.272Z,4.47
2018-09-12T09:22:24.843Z,4.30
2018-09-12T09:24:53.505Z,4.80
2018-09-12T09:27:22.098Z,5.47
2018-09-12T09:29:50.796Z,5.57
2018-09-12T09:32:19.454Z,5.00
2018-09-12T09:34:48.688Z,4.03
2018-09-12T09:37:17.522Z,4.10
2018-09-12T09:39:46.261Z,4.70
2018-09-12T09:42:14.812Z,4.27
2018-09-12T09:44:44.417Z,4.40
2018-09-12T09:47:13.508Z,4.67
2018-09-12T09:49:42.043Z,5.00
2018-09-12T09:52:10.753Z,3.67
2018-09-12T09:54:39.367Z,4.10
2018-09-12T09:57:08.018Z,3.87
2018-09-12T09:59:37.217Z,4.23
2018-09-12T10:02:11.757Z,4.60
2018-09-12T10:05:46.581Z,3.73
2018-09-12T10:08:20.418Z,3.50
2018-09-12T10:10:49.007Z,4.90
2018-09-12T10:13:17.552Z,3.70
2018-09-12T10:15:46.116Z,3.73
2018-09-12T10:18:14.742Z,4.33
2018-09-12T10:20:43.693Z,3.93
2018-09-12T10:23:12.389Z,3.53
2018-09-12T10:25:41.056Z,4.27
2018-09-12T10:28:09.633Z,3.60
2018-09-12T10:30:38.193Z,5.20
2018-09-12T10:33:06.940Z,3.40
2018-09-12T10:35:35.548Z,4.10
2018-09-12T10:38:04.236Z,3.93
2018-09-12T10:40:33.059Z,3.67
2018-09-12T10:43:01.852Z,3.70
2018-09-12T10:45:30.464Z,4.13
2018-09-12T10:47:59.196Z,3.73
2018-09-12T10:50:28.235Z,3.77
2018-09-12T10:52:56.878Z,4.50
2018-09-12T10:55:25.672Z,4.70
2018-09-12T10:57:54.344Z,4.70
2018-09-12T11:00:23.016Z,4.07
2018-09-12T11:02:53.165Z,5.73
2018-09-12T11:05:21.790Z,4.23
2018-09-12T11:07:50.405Z,4.40
2018-09-12T11:10:19.007Z,5.70
2018-09-12T11:12:47.721Z,6.10
2018-09-12T11:15:16.752Z,7.30
2018-09-12T11:17:47.817Z,7.50
2018-09-12T11:20:17.379Z,7.73
2018-09-12T11:22:46.937Z,7.60
2018-09-12T11:25:15.477Z,8.80
2018-09-12T11:27:44.083Z,6.87
2018-09-12T11:30:13.490Z,6.67
2018-09-12T11:32:42.109Z,6.00
2018-09-12T11:35:10.799Z,5.47
2018-09-12T11:37:39.433Z,5.33
2018-09-12T11:40:08.134Z,4.87
2018-09-12T11:42:36.768Z,5.40
2018-09-12T11:45:05.665Z,5.03
2018-09-12T11:47:34.269Z,4.70
2018-09-12T11:50:03.068Z,4.00
2018-09-12T11:52:32.356Z,4.00
2018-09-12T11:55:01.229Z,3.67
2018-09-12T11:57:30.157Z,4.93
2018-09-12T11:59:58.925Z,4.43
2018-09-12T12:02:27.591Z,4.53
2018-09-12T12:04:56.269Z,4.30
2018-09-12T12:07:24.907Z,4.70
2018-09-12T12:09:53.620Z,4.90
2018-09-12T12:12:22.224Z,4.30
2018-09-12T12:14:51.105Z,4.67
2018-09-12T12:17:19.661Z,5.13
2018-09-12T12:19:48.365Z,4.50
2018-09-12T12:22:17.573Z,4.73
2018-09-12T12:24:46.166Z,4.50
2018-09-12T12:27:15.012Z,6.17
2018-09-12T12:29:43.601Z,7.40
2018-09-12T12:32:12.249Z,7.03
2018-09-12T12:34:40.872Z,6.73
2018-09-12T12:37:09.642Z,6.03
2018-09-12T12:39:38.207Z,8.33
2018-09-12T12:42:06.820Z,9.13
2018-09-12T12:44:36.325Z,8.43
2018-09-12T12:47:04.907Z,8.53
2018-09-12T12:49:33.500Z,8.40
2018-09-12T12:52:02.443Z,8.07
2018-09-12T12:54:32.192Z,8.27
2018-09-12T12:57:01.532Z,8.40
2018-09-12T12:59:31.013Z,8.90
2018-09-12T13:01:59.719Z,9.23
2018-09-12T13:04:28.382Z,8.73
2018-09-12T13:06:57.516Z,8.20
2018-09-12T13:09:26.198Z,8.90
2018-09-12T13:11:54.865Z,8.87
2018-09-12T13:14:24.115Z,8.50
2018-09-12T13:16:53.184Z,9.57
2018-09-12T13:19:21.775Z,9.20
2018-09-12T13:21:50.594Z,9.00
2018-09-12T13:24:19.052Z,9.03
2018-09-12T13:26:47.739Z,7.13
2018-09-12T13:29:16.402Z,10.50
2018-09-12T13:31:45.069Z,10.80
2018-09-12T13:34:13.670Z,10.10
2018-09-12T13:36:42.398Z,10.10
2018-09-12T13:39:14.234Z,9.37
2018-09-12T13:41:42.932Z,9.23
2018-09-12T13:44:11.721Z,8.37
2018-09-12T13:46:40.332Z,9.83
2018-09-12T13:49:09.000Z,8.97
2018-09-12T13:51:38.328Z,10.40
2018-09-12T13:54:07.020Z,9.43
2018-09-12T13:56:35.729Z,6.70
2018-09-12T13:59:04.461Z,5.13
2018-09-12T14:01:33.076Z,4.77
2018-09-12T14:04:01.770Z,4.93
2018-09-12T14:06:30.388Z,4.33
2018-09-12T14:08:59.209Z,4.40
2018-09-12T14:11:27.664Z,4.43
2018-09-12T14:13:56.433Z,3.33
2018-09-12T14:16:25.025Z,2.87
2018-09-12T14:18:53.767Z,3.77
2018-09-12T14:21:22.538Z,4.40
2018-09-12T14:23:51.205Z,4.87
2018-09-12T14:26:19.808Z,5.90
2018-09-12T14:28:49.245Z,5.10
2018-09-12T14:31:19.043Z,4.83
2018-09-12T14:33:47.634Z,4.90
2018-09-12T14:36:16.395Z,4.13
2018-09-12T14:38:45.136Z,6.00
2018-09-12T14:41:13.804Z,3.60
2018-09-12T14:43:42.456Z,3.50
2018-09-12T14:46:11.152Z,4.40
2018-09-12T14:48:39.781Z,4.10
2018-09-12T14:51:08.353Z,3.80
2018-09-12T14:53:37.104Z,4.50
2018-09-12T14:56:06.523Z,4.57
2018-09-12T14:58:35.908Z,4.70
2018-09-12T15:01:04.456Z,4.40
2018-09-12T15:03:33.740Z,6.00
2018-09-12T15:06:02.502Z,5.00
2018-09-12T15:08:31.105Z,5.70
2018-09-12T15:10:59.741Z,4.83
2018-09-12T15:13:28.585Z,4.97
2018-09-12T15:15:57.244Z,3.87
2018-09-12T15:18:25.743Z,3.87
2018-09-12T15:20:54.595Z,3.93
2018-09-12T15:23:23.392Z,3.50
2018-09-12T15:25:52.031Z,3.20
2018-09-12T15:28:21.321Z,3.10
2018-09-12T15:30:50.197Z,2.80
2018-09-12T15:33:18.744Z,2.97
2018-09-12T15:35:47.822Z,2.57
2018-09-12T15:38:16.368Z,2.80
2018-09-12T15:40:45.014Z,2.50
2018-09-12T15:43:13.637Z,2.60
2018-09-12T15:45:42.205Z,2.90
2018-09-12T15:48:10.840Z,1.90
2018-09-12T15:50:40.261Z,2.00
2018-09-12T15:53:08.802Z,2.10
2018-09-12T15:55:37.409Z,1.77
2018-09-12T15:58:06.150Z,2.20
2018-09-12T16:00:34.779Z,2.10
2018-09-12T16:03:03.972Z,2.30
2018-09-12T16:05:32.709Z,1.70
2018-09-12T16:08:02.006Z,2.20
2018-09-12T16:10:30.701Z,1.90
2018-09-12T16:12:59.368Z,2.30
2018-09-12T16:15:27.988Z,2.30
2018-09-12T16:17:56.542Z,2.47
2018-09-12T16:20:25.226Z,2.40
2018-09-12T16:22:53.915Z,2.60
2018-09-12T16:25:22.558Z,2.40
2018-09-12T16:27:51.266Z,3.07
2018-09-12T16:30:20.003Z,3.63
2018-09-12T16:32:48.672Z,5.40
2018-09-12T16:35:17.989Z,4.97
2018-09-12T16:37:46.713Z,4.73
2018-09-12T16:40:15.561Z,4.23
2018-09-12T16:42:45.577Z,3.73
2018-09-12T16:45:14.905Z,3.67
2018-09-12T16:47:43.613Z,4.60
2018-09-12T16:50:12.341Z,5.30
2018-09-12T16:52:41.370Z,4.90
2018-09-12T16:55:10.189Z,7.77
2018-09-12T16:57:39.050Z,7.47
2018-09-12T17:00:07.664Z,7.10
2018-09-12T17:02:36.595Z,7.50
2018-09-12T17:05:05.473Z,9.00
2018-09-12T17:07:34.092Z,8.50
2018-09-12T17:10:03.522Z,8.70
2018-09-12T17:12:32.139Z,15.57
2018-09-12T17:15:00.779Z,18.20
2018-09-12T17:17:29.383Z,14.40
2018-09-12T17:19:58.122Z,13.17
2018-09-12T17:22:26.889Z,11.03
2018-09-12T17:24:55.643Z,9.00
2018-09-12T17:27:24.512Z,8.00
2018-09-12T17:29:53.800Z,6.63
2018-09-12T17:32:22.370Z,5.63
2018-09-12T17:34:50.972Z,6.20
2018-09-12T17:37:19.608Z,5.63
2018-09-12T17:39:48.464Z,5.70
2018-09-12T17:42:17.574Z,7.73
2018-09-12T17:44:46.358Z,5.67
2018-09-12T17:47:15.029Z,4.80
2018-09-12T17:49:44.732Z,5.47
2018-09-12T17:52:13.502Z,5.87
2018-09-12T17:54:42.183Z,5.63
2018-09-12T17:57:10.816Z,7.10
2018-09-12T17:59:39.517Z,7.03
2018-09-12T18:02:08.308Z,7.57
2018-09-12T18:04:37.112Z,8.20
2018-09-12T18:07:05.664Z,8.50
2018-09-12T18:09:34.299Z,8.60
2018-09-12T18:12:02.917Z,7.73
2018-09-12T18:14:31.529Z,6.77
2018-09-12T18:17:01.055Z,6.03
2018-09-12T18:19:30.268Z,6.57
2018-09-12T18:21:58.868Z,5.23
2018-09-12T18:24:27.752Z,4.60
2018-09-12T18:26:56.504Z,5.00
2018-09-12T18:29:25.706Z,4.73
2018-09-12T18:31:54.339Z,4.77
2018-09-12T18:34:22.943Z,4.60
2018-09-12T18:36:51.661Z,4.10
2018-09-12T18:39:20.391Z,4.37
2018-09-12T18:41:49.086Z,4.60
2018-09-12T18:44:17.760Z,4.80
2018-09-12T18:46:46.321Z,4.97
2018-09-12T18:49:14.958Z,4.33
2018-09-12T18:51:43.690Z,4.90
2018-09-12T18:54:12.255Z,6.20
2018-09-12T18:56:41.643Z,5.40
2018-09-12T18:59:10.285Z,6.67
2018-09-12T19:01:38.972Z,7.60
2018-09-12T19:04:08.302Z,7.60
2018-09-12T19:06:37.066Z,6.93
2018-09-12T19:09:08.493Z,7.50
2018-09-12T19:11:37.065Z,6.77
2018-09-12T19:14:05.767Z,6.60
2018-09-12T19:16:35.097Z,6.30
2018-09-12T19:19:03.661Z,6.30
2018-09-12T19:21:32.306Z,5.73
2018-09-12T19:24:01.125Z,7.40
2018-09-12T19:26:30.676Z,6.13
2018-09-12T19:28:59.486Z,6.90
2018-09-12T19:31:28.225Z,6.43
2018-09-12T19:33:57.596Z,6.57
2018-09-12T19:36:26.256Z,6.83
2018-09-12T19:38:54.823Z,7.20
2018-09-12T19:41:23.798Z,6.70
2018-09-12T19:43:52.538Z,7.27
2018-09-12T19:46:21.715Z,8.30
2018-09-12T19:48:50.451Z,8.70
2018-09-12T19:51:19.218Z,9.30
2018-09-12T19:53:47.888Z,8.27
2018-09-12T19:56:16.618Z,9.13
2018-09-12T19:58:45.726Z,9.23
2018-09-12T20:01:14.333Z,10.90
2018-09-12T20:03:43.184Z,11.67
2018-09-12T20:06:11.850Z,10.60
2018-09-12T20:08:40.521Z,11.93
2018-09-12T20:11:09.184Z,10.30
2018-09-12T20:13:37.777Z,10.80
2018-09-12T20:16:06.910Z,9.90
2018-09-12T20:18:35.771Z,11.10
2018-09-12T20:21:04.542Z,10.37
2018-09-12T20:23:33.834Z,11.50
2018-09-12T20:26:03.137Z,10.77
2018-09-12T20:28:37.847Z,12.23
2018-09-12T20:31:07.629Z,11.00
2018-09-12T20:33:36.459Z,11.80
2018-09-12T20:36:05.695Z,12.07
2018-09-12T20:38:34.336Z,12.20
2018-09-12T20:41:03.197Z,12.77
2018-09-12T20:43:31.840Z,12.47
2018-09-12T20:46:00.781Z,12.70
2018-09-12T20:48:29.676Z,12.13
2018-09-12T20:50:58.373Z,12.80
2018-09-12T20:53:27.217Z,13.10
2018-09-12T20:55:55.935Z,11.90
2018-09-12T20:58:24.757Z,12.50
2018-09-12T21:00:54.128Z,12.90
2018-09-12T21:03:23.053Z,13.83
2018-09-12T21:05:51.969Z,13.03
2018-09-12T21:08:20.795Z,13.07
2018-09-12T21:10:49.504Z,14.70
2018-09-12T21:13:18.078Z,13.23
2018-09-12T21:15:46.880Z,13.97
2018-09-12T21:18:15.613Z,12.50
2018-09-12T21:20:45.261Z,13.83
2018-09-12T21:23:13.966Z,13.43
2018-09-12T21:25:42.908Z,13.80
2018-09-12T21:28:11.609Z,15.90
2018-09-12T21:30:40.888Z,13.43
2018-09-12T21:33:09.881Z,14.40
2018-09-12T21:35:39.716Z,14.67
2018-09-12T21:38:09.253Z,15.43
2018-09-12T21:40:38.460Z,14.47
2018-09-12T21:43:07.285Z,14.33
2018-09-12T21:45:36.113Z,14.00
2018-09-12T21:48:04.819Z,15.20
2018-09-12T21:50:34.115Z,14.80
2018-09-12T21:53:02.950Z,14.00
2018-09-12T21:55:31.692Z,14.77
2018-09-12T21:58:00.355Z,14.67
2018-09-12T22:00:29.502Z,14.50
2018-09-12T22:02:58.763Z,16.20
2018-09-12T22:05:27.789Z,14.83
2018-09-12T22:07:56.880Z,16.20
2018-09-12T22:10:26.090Z,15.50
2018-09-12T22:12:55.588Z,16.70
2018-09-12T22:15:24.379Z,15.97
2018-09-12T22:17:53.129Z,16.03
2018-09-12T22:20:21.742Z,17.03
2018-09-12T22:22:50.505Z,16.50
2018-09-12T22:25:19.125Z,15.50
2018-09-12T22:27:47.835Z,14.40
2018-09-12T22:30:17.090Z,14.47
2018-09-12T22:32:45.679Z,14.13
2018-09-12T22:35:14.293Z,14.63
2018-09-12T22:37:43.057Z,13.90
2018-09-12T22:40:12.291Z,16.40
2018-09-12T22:42:41.011Z,15.70
2018-09-12T22:45:10.352Z,15.67
2018-09-12T22:47:39.548Z,16.63
2018-09-12T22:50:09.317Z,16.97
2018-09-12T22:52:37.919Z,17.00
2018-09-12T22:55:06.574Z,15.23
2018-09-12T22:57:35.533Z,15.00
2018-09-12T23:00:04.215Z,16.67
2018-09-12T23:02:32.972Z,15.97
2018-09-12T23:05:01.557Z,15.10
2018-09-12T23:07:30.135Z,16.90
2018-09-12T23:09:58.707Z,16.00
2018-09-12T23:12:27.355Z,15.17
2018-09-12T23:14:56.069Z,16.47
2018-09-12T23:17:24.808Z,17.37
2018-09-12T23:19:53.675Z,15.57
2018-09-12T23:22:22.299Z,15.90
2018-09-12T23:24:50.868Z,15.23
2018-09-12T23:27:19.444Z,13.50
2018-09-12T23:29:48.213Z,12.70
2018-09-12T23:32:16.811Z,13.70
2018-09-12T23:34:45.381Z,13.60
2018-09-12T23:37:14.036Z,12.83
2018-09-12T23:39:42.613Z,11.57
2018-09-12T23:42:11.218Z,12.73
2018-09-12T23:44:39.835Z,12.70
2018-09-12T23:47:08.795Z,12.80
2018-09-12T23:49:37.387Z,11.57
2018-09-12T23:52:06.061Z,11.33
2018-09-12T23:54:34.682Z,11.83
2018-09-12T23:57:04.728Z,11.70
2018-09-12T23:59:33.276Z,12.50
